ARDEC Weather Station

Colorado State Home Page USDA/ARS Home Page



Station:CSU - ARDEC
Location:6 mi NE Fort Collins
Elevation:5110
Longitude:105
Latitude:40.6525

ARDEC 5 Minute Data
Date Time Temp RelHum Dewpt Vapor Solar Wind Spd Wind Dir Precip 5 Soil 15 Soil Gust Spd Gust Tim Gust Dir Battery
MST °F %°Fmb ly/min mph °in. °F °F mphMST ° volts
2016-04-2906:50 33.1 100.3 33.2 6.40 0.05 4.0 162 0.00 42.0 44.5 5.2 06:48 155 11.40
2016-04-2906:45 33.1 100.2 33.2 6.40 0.04 4.1 156 0.00 42.0 44.5 5.4 06:43 157 11.40
2016-04-2906:40 33.0 100.2 33.1 6.38 0.04 3.7 156 0.00 42.0 44.5 4.5 06:39 158 11.40
2016-04-2906:35 33.0 100.1 33.0 6.35 0.03 4.3 157 0.00 42.0 44.5 5.4 06:30 153 11.41
2016-04-2906:30 33.0 100.0 33.0 6.35 0.03 4.1 153 0.00 42.0 44.5 5.0 06:30 146 11.40
2016-04-2906:25 33.0 99.9 33.0 6.36 0.03 4.6 152 0.00 42.0 44.6 5.8 06:21 155 11.39
2016-04-2906:20 33.2 99.8 33.1 6.39 0.03 4.6 151 0.00 42.1 44.6 6.1 06:19 148 11.40
2016-04-2906:15 33.2 99.7 33.2 6.40 0.03 4.2 154 0.00 42.1 44.6 5.3 06:12 160 11.40
2016-04-2906:10 33.3 99.7 33.2 6.42 0.02 4.0 154 0.01 42.1 44.6 5.5 06:07 154 11.40
2016-04-2906:05 33.5 99.8 33.5 6.48 0.02 4.5 146 0.00 42.1 44.6 7.1 06:00 145 11.40
2016-04-2906:00 33.6 99.8 33.5 6.49 0.02 6.7 122 0.00 42.1 44.7 8.1 05:56 105 11.40
2016-04-2905:55 33.5 99.9 33.5 6.48 0.02 7.4 118 0.00 42.2 44.7 10.3 05:52 112 11.40
2016-04-2905:50 33.5 99.9 33.4 6.47 0.01 6.4 113 0.00 42.2 44.7 7.9 05:49 106 11.39
2016-04-2905:45 33.3 99.8 33.3 6.43 0.01 6.6 109 0.00 42.2 44.7 8.3 05:40 103 11.40
2016-04-2905:40 33.3 99.8 33.2 6.42 0.01 7.6 107 0.00 42.3 44.7 9.0 05:35 101 11.40
2016-04-2905:35 33.3 99.9 33.3 6.44 0.01 8.3 104 0.00 42.3 44.7 10.8 05:33 112 11.41
2016-04-2905:30 33.4 99.9 33.4 6.45 0.01 9.7 103 0.00 42.3 44.8 12.0 05:26 111 11.40
2016-04-2905:25 33.4 99.9 33.4 6.47 0.01 9.5 105 0.00 42.3 44.8 11.1 05:25 98 11.40
2016-04-2905:20 33.5 99.9 33.5 6.48 0.00 9.2 99 0.01 42.4 44.8 10.8 05:19 104 11.40
2016-04-2905:15 33.6 99.8 33.5 6.49 0.00 9.1 101 0.00 42.4 44.8 10.6 05:13 103 11.40
2016-04-2905:10 33.6 99.8 33.6 6.51 0.00 9.4 94 0.00 42.4 44.8 10.9 05:07 95 11.40
2016-04-2905:05 33.8 99.7 33.7 6.54 0.00 9.3 99 0.00 42.5 44.8 12.0 05:01 99 11.40
2016-04-2905:00 33.8 99.7 33.7 6.54 0.00 10.8 102 0.00 42.5 44.9 13.5 04:56 95 11.40
2016-04-2904:55 33.7 99.7 33.7 6.53 0.00 11.2 108 0.00 42.5 44.9 13.9 04:53 97 11.39
2016-04-2904:50 33.7 99.7 33.6 6.51 0.00 11.3 110 0.00 42.5 44.9 13.4 04:45 113 11.39

 


Plots for last week.

ARDEC Home


DISCLAIMER

Authorized use of this data is limited to the academic, administrative, research Colorado State University and its Cooperative and Extension facilities. Use is NOT authorized for operational or commercial purposes. The data are provided "as is", and in no event shall the providers be liable for any damage or loss due to missing data or misinterpretation of its content.

 


Return to the CoAgMet Homepage.